createdAt,value
2019-03-26T00:01:50.501Z,20.57
2019-03-26T00:04:21.790Z,24.97
2019-03-26T00:06:53.288Z,24.70
2019-03-26T00:09:24.722Z,29.43
2019-03-26T00:11:56.150Z,26.67
2019-03-26T00:14:27.581Z,20.97
2019-03-26T00:16:59.222Z,25.10
2019-03-26T00:19:30.737Z,23.87
2019-03-26T00:22:02.183Z,21.23
2019-03-26T00:24:33.501Z,22.67
2019-03-26T00:27:07.711Z,24.23
2019-03-26T00:29:38.069Z,24.93
2019-03-26T00:32:09.555Z,21.07
2019-03-26T00:34:40.970Z,23.20
2019-03-26T00:37:12.473Z,26.40
2019-03-26T00:39:43.869Z,27.67
2019-03-26T00:42:15.422Z,28.60
2019-03-26T00:44:46.695Z,25.40
2019-03-26T00:47:17.919Z,25.33
2019-03-26T00:49:49.244Z,28.37
2019-03-26T00:52:20.689Z,31.93
2019-03-26T00:54:52.029Z,25.47
2019-03-26T00:57:23.497Z,24.00
2019-03-26T00:59:55.070Z,26.37
2019-03-26T01:02:26.418Z,24.40
2019-03-26T01:04:57.708Z,31.30
2019-03-26T01:07:29.133Z,27.67
2019-03-26T01:10:00.662Z,27.30
2019-03-26T01:12:32.009Z,29.33
2019-03-26T01:15:03.382Z,25.73
2019-03-26T01:17:34.844Z,26.97
2019-03-26T01:20:06.753Z,30.23
2019-03-26T01:22:38.987Z,26.07
2019-03-26T01:25:10.528Z,27.60
2019-03-26T01:27:41.973Z,29.60
2019-03-26T01:30:13.959Z,28.53
2019-03-26T01:32:45.279Z,26.50
2019-03-26T01:35:16.634Z,30.17
2019-03-26T01:37:47.988Z,31.77
2019-03-26T01:40:19.375Z,28.90
2019-03-26T01:42:50.856Z,28.53
2019-03-26T01:45:22.258Z,27.33
2019-03-26T01:47:53.768Z,28.87
2019-03-26T01:50:25.146Z,29.27
2019-03-26T01:52:56.623Z,32.27
2019-03-26T01:55:28.082Z,32.90
2019-03-26T01:57:59.474Z,32.73
2019-03-26T02:00:31.430Z,29.53
2019-03-26T02:03:02.817Z,29.83
2019-03-26T02:05:34.156Z,28.17
2019-03-26T02:08:05.631Z,27.63
2019-03-26T02:10:37.029Z,27.17
2019-03-26T02:13:08.509Z,27.83
2019-03-26T02:15:40.078Z,34.87
2019-03-26T02:18:11.699Z,30.60
2019-03-26T02:20:43.090Z,29.27
2019-03-26T02:23:14.771Z,32.07
2019-03-26T02:25:46.145Z,29.27
2019-03-26T02:28:17.863Z,28.67
2019-03-26T02:30:49.310Z,29.87
2019-03-26T02:33:20.642Z,25.50
2019-03-26T02:35:52.025Z,29.10
2019-03-26T02:38:23.410Z,33.90
2019-03-26T02:40:54.799Z,30.87
2019-03-26T02:43:26.245Z,32.90
2019-03-26T02:45:57.570Z,33.13
2019-03-26T02:48:28.931Z,29.07
2019-03-26T02:51:00.349Z,32.13
2019-03-26T02:53:31.743Z,29.97
2019-03-26T02:56:03.220Z,26.07
2019-03-26T02:58:34.720Z,31.83
2019-03-26T03:01:06.149Z,33.97
2019-03-26T03:03:37.571Z,29.90
2019-03-26T03:06:09.049Z,26.93
2019-03-26T03:08:40.357Z,31.00
2019-03-26T03:11:11.804Z,27.73
2019-03-26T03:13:43.109Z,29.40
2019-03-26T03:16:14.534Z,29.13
2019-03-26T03:18:45.773Z,27.77
2019-03-26T03:21:17.068Z,22.03
2019-03-26T03:23:48.318Z,20.67
2019-03-26T03:26:19.559Z,21.27
2019-03-26T03:28:50.769Z,23.60
2019-03-26T03:31:22.191Z,24.60
2019-03-26T03:33:53.671Z,26.30
2019-03-26T03:36:25.080Z,23.67
2019-03-26T03:38:56.398Z,21.37
2019-03-26T03:41:27.825Z,24.20
2019-03-26T03:43:59.212Z,23.17
2019-03-26T03:46:30.672Z,25.27
2019-03-26T03:49:02.725Z,21.87
2019-03-26T03:51:35.829Z,24.20
2019-03-26T03:54:07.317Z,28.47
2019-03-26T03:56:41.795Z,26.27
2019-03-26T03:59:13.629Z,25.80
2019-03-26T04:01:45.059Z,32.17
2019-03-26T04:04:16.393Z,31.60
2019-03-26T04:06:47.749Z,26.87
2019-03-26T04:09:19.219Z,34.73
2019-03-26T04:11:50.436Z,35.83
2019-03-26T04:14:21.723Z,27.10
2019-03-26T04:16:53.110Z,34.37
2019-03-26T04:19:24.562Z,29.43
2019-03-26T04:21:55.978Z,22.17
2019-03-26T04:24:27.381Z,22.53
2019-03-26T04:26:58.789Z,28.17
2019-03-26T04:29:30.113Z,30.70
2019-03-26T04:32:01.586Z,29.00
2019-03-26T04:34:33.107Z,31.10
2019-03-26T04:37:04.649Z,28.40
2019-03-26T04:39:36.352Z,25.70
2019-03-26T04:42:08.025Z,30.10
2019-03-26T04:44:39.663Z,29.30
2019-03-26T04:47:10.983Z,33.17
2019-03-26T04:49:42.437Z,34.57
2019-03-26T04:52:14.234Z,34.63
2019-03-26T04:54:46.100Z,27.17
2019-03-26T04:57:17.503Z,27.73
2019-03-26T04:59:49.528Z,27.50
2019-03-26T05:02:21.052Z,26.80
2019-03-26T05:04:52.528Z,26.27
2019-03-26T05:07:23.919Z,24.70
2019-03-26T05:09:55.485Z,24.87
2019-03-26T05:12:27.526Z,20.57
2019-03-26T05:14:58.722Z,25.17
2019-03-26T05:17:32.622Z,26.40
2019-03-26T05:20:04.084Z,24.23
2019-03-26T05:22:35.570Z,21.80
2019-03-26T05:25:08.063Z,20.40
2019-03-26T05:27:45.686Z,20.10
2019-03-26T05:30:14.429Z,22.43
2019-03-26T05:32:46.343Z,21.20
2019-03-26T05:35:18.408Z,19.60
2019-03-26T05:37:50.422Z,20.43
2019-03-26T05:40:22.291Z,21.33
2019-03-26T05:42:54.568Z,18.30
2019-03-26T05:45:26.046Z,19.13
2019-03-26T05:47:57.488Z,21.10
2019-03-26T05:50:29.017Z,20.20
2019-03-26T05:53:00.560Z,18.27
2019-03-26T05:55:32.023Z,19.87
2019-03-26T05:58:03.417Z,23.13
2019-03-26T06:00:35.258Z,21.90
2019-03-26T06:03:06.672Z,23.73
2019-03-26T06:05:39.163Z,22.60
2019-03-26T06:08:10.718Z,21.87
2019-03-26T06:10:42.174Z,22.87
2019-03-26T06:13:13.778Z,23.07
2019-03-26T06:15:45.282Z,16.87
2019-03-26T06:18:17.153Z,18.40
2019-03-26T06:20:48.831Z,21.80
2019-03-26T06:23:20.884Z,22.77
2019-03-26T06:25:52.477Z,21.03
2019-03-26T06:28:24.025Z,18.23
2019-03-26T06:30:55.467Z,18.77
2019-03-26T06:33:26.874Z,15.83
2019-03-26T06:35:58.223Z,20.27
2019-03-26T06:38:29.578Z,16.93
2019-03-26T06:41:00.964Z,18.03
2019-03-26T06:43:32.350Z,18.53
2019-03-26T06:46:03.967Z,17.10
2019-03-26T06:48:35.551Z,18.83
2019-03-26T06:51:07.079Z,19.33
2019-03-26T06:53:38.429Z,21.43
2019-03-26T06:56:09.977Z,22.33
2019-03-26T06:58:41.546Z,20.13
2019-03-26T07:01:13.248Z,20.07
2019-03-26T07:03:44.730Z,16.27
2019-03-26T07:06:16.507Z,16.30
2019-03-26T07:08:48.535Z,18.97
2019-03-26T07:11:20.460Z,17.93
2019-03-26T07:13:52.163Z,18.03
2019-03-26T07:16:23.887Z,15.40
2019-03-26T07:18:55.436Z,16.37
2019-03-26T07:21:26.957Z,16.77
2019-03-26T07:23:58.428Z,18.60
2019-03-26T07:26:29.942Z,22.27
2019-03-26T07:29:01.506Z,19.33
2019-03-26T07:31:33.040Z,17.07
2019-03-26T07:34:07.096Z,19.13
2019-03-26T07:36:37.504Z,14.50
2019-03-26T07:39:09.859Z,15.20
2019-03-26T07:41:41.414Z,27.43
2019-03-26T07:44:12.970Z,15.97
2019-03-26T07:46:44.492Z,13.93
2019-03-26T07:49:15.885Z,14.73
2019-03-26T07:51:47.473Z,15.50
2019-03-26T07:54:19.029Z,16.37
2019-03-26T07:56:50.517Z,17.50
2019-03-26T07:59:21.997Z,18.07
2019-03-26T08:01:53.397Z,18.23
2019-03-26T08:04:24.901Z,18.77
2019-03-26T08:06:56.467Z,16.77
2019-03-26T08:09:31.435Z,18.20
2019-03-26T08:12:01.371Z,21.07
2019-03-26T08:14:34.532Z,19.07
2019-03-26T08:17:06.377Z,21.93
2019-03-26T08:19:37.808Z,22.17
2019-03-26T08:22:09.494Z,21.73
2019-03-26T08:24:41.049Z,18.80
2019-03-26T08:27:12.492Z,23.27
2019-03-26T08:29:44.098Z,21.17
2019-03-26T08:32:15.772Z,17.60
2019-03-26T08:34:47.402Z,18.97
2019-03-26T08:37:18.939Z,19.77
2019-03-26T08:39:50.323Z,17.73
2019-03-26T08:42:21.895Z,22.87
2019-03-26T08:44:53.388Z,17.63
2019-03-26T08:47:24.790Z,19.83
2019-03-26T08:49:57.284Z,17.53
2019-03-26T08:52:28.758Z,18.80
2019-03-26T08:55:00.367Z,18.43
2019-03-26T08:57:31.997Z,20.10
2019-03-26T09:00:03.612Z,16.00
2019-03-26T09:02:35.197Z,19.23
2019-03-26T09:05:08.560Z,17.17
2019-03-26T09:07:40.256Z,17.53
2019-03-26T09:10:12.954Z,17.30
2019-03-26T09:12:44.371Z,18.90
2019-03-26T09:15:16.388Z,16.50
2019-03-26T09:17:47.859Z,15.47
2019-03-26T09:20:21.844Z,16.70
2019-03-26T09:22:53.402Z,16.23
2019-03-26T09:25:24.909Z,15.47
2019-03-26T09:27:56.974Z,15.00
2019-03-26T09:30:28.518Z,13.23
2019-03-26T09:33:00.034Z,12.83
2019-03-26T09:35:31.524Z,12.53
2019-03-26T09:38:02.950Z,12.83
2019-03-26T09:40:34.479Z,14.20
2019-03-26T09:43:05.917Z,12.20
2019-03-26T09:45:37.377Z,11.87
2019-03-26T09:48:08.872Z,13.30
2019-03-26T09:50:40.394Z,13.23
2019-03-26T09:53:11.894Z,13.77
2019-03-26T09:55:43.403Z,10.33
2019-03-26T09:58:14.893Z,13.20
2019-03-26T10:00:46.474Z,9.53
2019-03-26T10:03:18.049Z,12.10
2019-03-26T10:05:49.472Z,9.23
2019-03-26T10:08:20.884Z,14.50
2019-03-26T10:10:52.553Z,11.10
2019-03-26T10:13:23.882Z,10.77
2019-03-26T10:15:55.325Z,10.40
2019-03-26T10:18:26.811Z,9.33
2019-03-26T10:20:58.194Z,10.87
2019-03-26T10:23:29.588Z,12.23
2019-03-26T10:26:03.862Z,12.47
2019-03-26T10:28:35.334Z,14.90
2019-03-26T10:31:06.699Z,18.30
2019-03-26T10:33:38.162Z,9.70
2019-03-26T10:36:09.554Z,11.57
2019-03-26T10:38:40.912Z,10.27
2019-03-26T10:41:12.308Z,8.93
2019-03-26T10:43:43.769Z,10.60
2019-03-26T10:46:15.174Z,13.13
2019-03-26T10:48:46.584Z,8.70
2019-03-26T10:51:17.960Z,10.93
2019-03-26T10:53:49.412Z,8.93
2019-03-26T10:56:21.454Z,9.20
2019-03-26T10:58:52.817Z,7.53
2019-03-26T11:01:24.273Z,9.33
2019-03-26T11:03:55.825Z,7.27
2019-03-26T11:06:27.339Z,6.87
2019-03-26T11:08:58.734Z,9.40
2019-03-26T11:11:30.029Z,8.30
2019-03-26T11:14:01.559Z,9.03
2019-03-26T11:16:33.129Z,11.60
2019-03-26T11:19:04.608Z,11.07
2019-03-26T11:21:36.016Z,21.67
2019-03-26T11:24:07.588Z,16.47
2019-03-26T11:26:39.167Z,16.73
2019-03-26T11:29:10.590Z,14.10
2019-03-26T11:31:43.780Z,15.83
2019-03-26T11:34:15.308Z,10.97
2019-03-26T11:36:46.992Z,7.40
2019-03-26T11:39:31.821Z,9.37
2019-03-26T11:41:51.507Z,11.20
2019-03-26T11:44:22.875Z,11.00
2019-03-26T11:46:54.690Z,9.37
2019-03-26T11:49:26.125Z,9.87
2019-03-26T11:51:57.559Z,5.77
2019-03-26T11:54:29.185Z,8.50
2019-03-26T11:57:00.624Z,5.90
2019-03-26T11:59:32.146Z,9.00
2019-03-26T12:02:05.213Z,9.67
2019-03-26T12:04:36.740Z,11.37
2019-03-26T12:07:08.046Z,7.33
2019-03-26T12:09:46.048Z,32.20
2019-03-26T12:12:12.742Z,11.77
2019-03-26T12:14:44.469Z,10.50
2019-03-26T12:17:15.941Z,6.97
2019-03-26T12:19:47.369Z,5.90
2019-03-26T12:22:19.603Z,6.53
2019-03-26T12:24:51.163Z,6.77
2019-03-26T12:27:22.675Z,9.17
2019-03-26T12:29:54.276Z,10.83
2019-03-26T12:32:25.799Z,11.57
2019-03-26T12:34:57.395Z,8.93
2019-03-26T12:37:28.810Z,8.37
2019-03-26T12:40:00.849Z,11.03
2019-03-26T12:42:32.697Z,11.77
2019-03-26T12:45:06.791Z,11.50
2019-03-26T12:47:37.529Z,11.13
2019-03-26T12:50:09.389Z,8.43
2019-03-26T12:52:40.954Z,8.60
2019-03-26T12:55:12.523Z,9.50
2019-03-26T12:57:43.980Z,9.03
2019-03-26T13:00:16.101Z,8.37
2019-03-26T13:02:47.484Z,8.97
2019-03-26T13:05:18.924Z,9.87
2019-03-26T13:07:50.348Z,9.30
2019-03-26T13:10:21.888Z,7.17
2019-03-26T13:12:53.464Z,9.07
2019-03-26T13:15:24.981Z,8.50
2019-03-26T13:17:56.463Z,7.30
2019-03-26T13:20:28.080Z,10.80
2019-03-26T13:22:59.505Z,11.47
2019-03-26T13:25:30.976Z,9.30
2019-03-26T13:28:02.407Z,11.30
2019-03-26T13:30:34.025Z,7.40
2019-03-26T13:33:05.440Z,7.73
2019-03-26T13:35:36.999Z,8.67
2019-03-26T13:38:08.484Z,11.23
2019-03-26T13:40:39.959Z,11.33
2019-03-26T13:43:11.539Z,13.43
2019-03-26T13:45:43.095Z,7.20
2019-03-26T13:48:14.589Z,10.80
2019-03-26T13:50:46.188Z,9.70
2019-03-26T13:53:17.655Z,12.37
2019-03-26T13:55:49.079Z,9.20
2019-03-26T13:58:20.664Z,9.63
2019-03-26T14:00:52.194Z,9.33
2019-03-26T14:03:23.619Z,12.20
2019-03-26T14:05:55.044Z,12.50
2019-03-26T14:08:26.490Z,11.20
2019-03-26T14:10:57.989Z,11.67
2019-03-26T14:13:29.459Z,6.07
2019-03-26T14:16:00.917Z,8.97
2019-03-26T14:18:32.484Z,12.80
2019-03-26T14:21:06.324Z,10.17
2019-03-26T14:23:37.789Z,11.07
2019-03-26T14:26:09.279Z,8.73
2019-03-26T14:28:41.108Z,7.80
2019-03-26T14:31:12.575Z,9.30
2019-03-26T14:33:44.089Z,10.47
2019-03-26T14:36:15.620Z,8.43
2019-03-26T14:38:47.240Z,12.33
2019-03-26T14:41:19.267Z,14.07
2019-03-26T14:43:50.770Z,9.87
2019-03-26T14:46:22.180Z,7.87
2019-03-26T14:48:53.649Z,10.20
2019-03-26T14:51:25.247Z,4.83
2019-03-26T14:53:56.768Z,10.47
2019-03-26T14:56:28.213Z,6.83
2019-03-26T14:58:59.708Z,8.13
2019-03-26T15:01:31.184Z,6.17
2019-03-26T15:04:02.737Z,6.17
2019-03-26T15:06:34.419Z,5.57
2019-03-26T15:09:08.204Z,13.47
2019-03-26T15:11:39.857Z,12.30
2019-03-26T15:14:11.354Z,10.07
2019-03-26T15:16:43.214Z,16.70
2019-03-26T15:19:14.745Z,8.73
2019-03-26T15:21:46.226Z,8.43
2019-03-26T15:24:17.734Z,8.00
2019-03-26T15:26:49.145Z,8.33
2019-03-26T15:29:20.654Z,6.80
2019-03-26T15:31:52.138Z,10.83
2019-03-26T15:34:35.584Z,9.63
2019-03-26T15:36:56.819Z,7.57
2019-03-26T15:39:28.340Z,11.63
2019-03-26T15:41:59.878Z,15.67
2019-03-26T15:44:31.634Z,10.43
2019-03-26T15:47:03.118Z,13.50
2019-03-26T15:49:34.718Z,9.50
2019-03-26T15:52:06.395Z,11.50
2019-03-26T15:54:37.809Z,13.10
2019-03-26T15:57:09.336Z,13.87
2019-03-26T15:59:40.824Z,7.83
2019-03-26T16:02:12.239Z,10.13
2019-03-26T16:04:43.769Z,10.07
2019-03-26T16:07:15.183Z,14.47
2019-03-26T16:09:46.623Z,10.17
2019-03-26T16:12:18.523Z,22.10
2019-03-26T16:14:53.801Z,13.70
2019-03-26T16:17:25.796Z,12.23
2019-03-26T16:19:57.364Z,16.10
2019-03-26T16:22:29.053Z,23.13
2019-03-26T16:25:01.989Z,19.73
2019-03-26T16:27:36.389Z,12.93
2019-03-26T16:30:11.003Z,18.57
2019-03-26T16:32:42.692Z,21.50
2019-03-26T16:35:14.254Z,25.40
2019-03-26T16:37:45.819Z,29.20
2019-03-26T16:40:18.556Z,21.63
2019-03-26T16:42:51.568Z,32.07
2019-03-26T16:45:25.518Z,21.97
2019-03-26T16:47:56.918Z,29.53
2019-03-26T16:50:31.975Z,17.57
2019-03-26T16:53:03.742Z,23.27
2019-03-26T16:55:36.669Z,13.77
2019-03-26T16:58:08.093Z,31.63
2019-03-26T17:00:40.762Z,20.33
2019-03-26T17:03:12.179Z,13.37
2019-03-26T17:05:43.663Z,26.50
2019-03-26T17:08:16.859Z,27.30
2019-03-26T17:10:49.429Z,40.17
2019-03-26T17:13:24.675Z,18.53
2019-03-26T17:15:59.616Z,30.70
2019-03-26T17:18:31.190Z,18.93
2019-03-26T17:21:02.691Z,10.10
2019-03-26T17:23:37.346Z,11.83
2019-03-26T17:26:11.096Z,5.80
2019-03-26T17:28:43.664Z,8.03
2019-03-26T17:31:15.253Z,8.00
2019-03-26T17:33:46.941Z,8.83
2019-03-26T17:36:21.706Z,9.13
2019-03-26T17:38:54.399Z,8.17
2019-03-26T17:41:25.861Z,9.37
2019-03-26T17:43:57.345Z,6.67
2019-03-26T17:46:31.329Z,7.20
2019-03-26T17:49:06.434Z,13.00
2019-03-26T17:51:42.149Z,9.00
2019-03-26T17:54:13.699Z,6.27
2019-03-26T17:56:48.173Z,13.40
2019-03-26T17:59:21.878Z,9.67
2019-03-26T18:01:54.514Z,15.17
2019-03-26T18:04:26.156Z,15.07
2019-03-26T18:06:57.619Z,14.13
2019-03-26T18:09:30.158Z,13.83
2019-03-26T18:12:01.551Z,13.93
2019-03-26T18:14:36.963Z,16.10
2019-03-26T18:17:08.586Z,24.37
2019-03-26T18:19:40.130Z,24.80
2019-03-26T18:22:11.745Z,28.17
2019-03-26T18:24:43.130Z,21.47
2019-03-26T18:27:18.115Z,24.37
2019-03-26T18:29:58.320Z,22.70
2019-03-26T18:32:33.104Z,32.80
2019-03-26T18:35:06.939Z,25.30
2019-03-26T18:37:44.058Z,35.43
2019-03-26T18:40:16.044Z,26.03
2019-03-26T18:42:47.612Z,24.47
2019-03-26T18:45:20.204Z,18.40
2019-03-26T18:47:57.889Z,25.33
2019-03-26T18:50:29.453Z,42.03
2019-03-26T18:53:03.717Z,35.50
2019-03-26T18:55:35.239Z,56.23
2019-03-26T18:58:08.670Z,48.80
2019-03-26T19:00:46.374Z,45.00
2019-03-26T19:03:17.980Z,33.93
2019-03-26T19:05:49.594Z,41.27
2019-03-26T19:08:24.803Z,43.87
2019-03-26T19:10:57.500Z,38.30
2019-03-26T19:13:29.472Z,45.67
2019-03-26T19:16:02.112Z,28.83
2019-03-26T19:18:33.549Z,29.93
2019-03-26T19:21:07.539Z,31.40
2019-03-26T19:23:44.435Z,24.50
2019-03-26T19:26:17.953Z,22.40
2019-03-26T19:29:02.291Z,27.57
2019-03-26T19:31:33.901Z,25.73
2019-03-26T19:34:08.596Z,23.30
2019-03-26T19:36:40.455Z,24.50
2019-03-26T19:39:14.440Z,20.87
2019-03-26T19:41:48.415Z,26.73
2019-03-26T19:44:22.823Z,33.23
2019-03-26T19:46:55.478Z,17.07
2019-03-26T19:49:31.186Z,25.03
2019-03-26T19:52:03.381Z,34.23
2019-03-26T19:54:37.162Z,36.57
2019-03-26T19:57:09.937Z,29.73
2019-03-26T19:59:42.693Z,38.63
2019-03-26T20:02:19.461Z,29.03
2019-03-26T20:04:51.310Z,31.70
2019-03-26T20:07:22.708Z,30.80
2019-03-26T20:09:54.714Z,34.90
2019-03-26T20:12:30.599Z,28.47
2019-03-26T20:15:02.603Z,23.77
2019-03-26T20:17:36.860Z,23.73
2019-03-26T20:20:09.868Z,25.63
2019-03-26T20:22:44.142Z,23.10
2019-03-26T20:25:16.314Z,23.30
2019-03-26T20:27:49.405Z,28.70
2019-03-26T20:30:24.260Z,17.77
2019-03-26T20:33:01.574Z,28.47
2019-03-26T20:35:38.598Z,21.50
2019-03-26T20:38:10.141Z,19.73
2019-03-26T20:40:43.057Z,29.20
2019-03-26T20:43:16.750Z,28.70
2019-03-26T20:45:51.349Z,30.57
2019-03-26T20:48:35.913Z,26.47
2019-03-26T20:51:07.536Z,27.37
2019-03-26T20:53:46.660Z,22.60
2019-03-26T20:56:24.876Z,21.90
2019-03-26T20:58:59.999Z,24.10
2019-03-26T21:01:33.685Z,26.80
2019-03-26T21:04:06.373Z,28.57
2019-03-26T21:06:38.989Z,24.13
2019-03-26T21:09:14.037Z,27.00
2019-03-26T21:11:50.565Z,27.40
2019-03-26T21:14:26.280Z,22.80
2019-03-26T21:16:57.913Z,15.90
2019-03-26T21:19:30.859Z,23.80
2019-03-26T21:22:02.233Z,18.57
2019-03-26T21:24:33.945Z,14.60
2019-03-26T21:27:06.495Z,21.73
2019-03-26T21:29:37.823Z,18.47
2019-03-26T21:32:09.389Z,14.23
2019-03-26T21:34:40.897Z,12.33
2019-03-26T21:37:12.589Z,15.50
2019-03-26T21:39:44.945Z,14.60
2019-03-26T21:42:16.525Z,13.07
2019-03-26T21:44:47.918Z,19.33
2019-03-26T21:47:19.344Z,19.67
2019-03-26T21:49:50.667Z,17.43
2019-03-26T21:52:40.899Z,18.13
2019-03-26T21:55:13.505Z,18.77
2019-03-26T21:57:45.125Z,14.70
2019-03-26T22:00:17.308Z,19.83
2019-03-26T22:02:48.870Z,16.67
2019-03-26T22:05:20.745Z,19.20
2019-03-26T22:07:52.169Z,16.87
2019-03-26T22:10:23.479Z,19.20
2019-03-26T22:12:54.980Z,17.03
2019-03-26T22:15:26.549Z,20.47
2019-03-26T22:17:58.129Z,17.70
2019-03-26T22:20:29.542Z,20.27
2019-03-26T22:23:01.061Z,19.77
2019-03-26T22:25:33.109Z,19.83
2019-03-26T22:28:04.688Z,21.07
2019-03-26T22:30:36.089Z,17.10
2019-03-26T22:33:07.428Z,25.53
2019-03-26T22:35:38.969Z,19.90
2019-03-26T22:38:10.363Z,22.87
2019-03-26T22:40:41.962Z,24.97
2019-03-26T22:43:13.370Z,30.67
2019-03-26T22:45:44.869Z,33.53
2019-03-26T22:48:16.283Z,33.60
2019-03-26T22:50:47.764Z,29.67
2019-03-26T22:53:20.438Z,29.10
2019-03-26T22:55:51.961Z,24.77
2019-03-26T22:58:23.724Z,23.83
2019-03-26T23:00:55.719Z,24.03
2019-03-26T23:03:27.244Z,23.93
2019-03-26T23:05:58.699Z,24.67
2019-03-26T23:08:30.310Z,23.40
2019-03-26T23:11:01.825Z,28.93
2019-03-26T23:13:33.379Z,26.83
2019-03-26T23:16:04.918Z,20.37
2019-03-26T23:18:36.321Z,23.37
2019-03-26T23:21:07.799Z,19.00
2019-03-26T23:23:39.440Z,24.00
2019-03-26T23:26:10.889Z,23.90
2019-03-26T23:28:42.485Z,16.37
2019-03-26T23:31:14.013Z,22.70
2019-03-26T23:33:45.409Z,18.40
2019-03-26T23:36:17.131Z,16.83
2019-03-26T23:38:48.854Z,20.10
2019-03-26T23:41:20.600Z,21.00
2019-03-26T23:43:52.715Z,18.30
2019-03-26T23:46:24.605Z,18.70
2019-03-26T23:48:56.344Z,14.70
2019-03-26T23:51:28.074Z,18.20
2019-03-26T23:53:59.669Z,19.47
2019-03-26T23:56:31.070Z,14.17
2019-03-26T23:59:02.526Z,19.00
